sensor_id;sensor_type;location;lat;lon;timestamp;temperature;humidity
2623;DHT22;1321;48.690;9.022;2023-03-14T00:01:36;11.40;1.00
2623;DHT22;1321;48.690;9.022;2023-03-14T00:04:04;11.50;1.00
2623;DHT22;1321;48.690;9.022;2023-03-14T00:06:32;11.40;1.00
2623;DHT22;1321;48.690;9.022;2023-03-14T00:09:00;11.20;1.00
2623;DHT22;1321;48.690;9.022;2023-03-14T00:11:28;11.30;1.00
2623;DHT22;1321;48.690;9.022;2023-03-14T00:13:57;11.40;1.00
2623;DHT22;1321;48.690;9.022;2023-03-14T00:16:27;11.40;1.00
2623;DHT22;1321;48.690;9.022;2023-03-14T00:18:55;11.40;1.00
2623;DHT22;1321;48.690;9.022;2023-03-14T00:21:23;11.50;1.00
2623;DHT22;1321;48.690;9.022;2023-03-14T00:23:51;11.60;1.00
2623;DHT22;1321;48.690;9.022;2023-03-14T00:26:21;11.40;1.00
2623;DHT22;1321;48.690;9.022;2023-03-14T00:28:52;11.40;1.00
2623;DHT22;1321;48.690;9.022;2023-03-14T00:31:20;11.40;1.00
2623;DHT22;1321;48.690;9.022;2023-03-14T00:33:51;11.50;1.00
2623;DHT22;1321;48.690;9.022;2023-03-14T00:36:20;11.50;1.00
2623;DHT22;1321;48.690;9.022;2023-03-14T00:38:50;11.50;1.00
2623;DHT22;1321;48.690;9.022;2023-03-14T00:41:20;11.50;1.00
2623;DHT22;1321;48.690;9.022;2023-03-14T00:43:50;11.50;1.00
2623;DHT22;1321;48.690;9.022;2023-03-14T00:46:18;11.40;1.00
2623;DHT22;1321;48.690;9.022;2023-03-14T00:48:46;11.30;1.00
2623;DHT22;1321;48.690;9.022;2023-03-14T00:51:16;11.40;1.00
2623;DHT22;1321;48.690;9.022;2023-03-14T00:53:44;11.50;99.90
2623;DHT22;1321;48.690;9.022;2023-03-14T00:56:13;11.50;99.90
2623;DHT22;1321;48.690;9.022;2023-03-14T00:58:41;11.40;1.00
2623;DHT22;1321;48.690;9.022;2023-03-14T01:01:12;11.40;1.00
2623;DHT22;1321;48.690;9.022;2023-03-14T01:03:41;11.40;99.90
2623;DHT22;1321;48.690;9.022;2023-03-14T01:06:11;11.40;99.90
2623;DHT22;1321;48.690;9.022;2023-03-14T01:08:41;11.30;1.00
2623;DHT22;1321;48.690;9.022;2023-03-14T01:11:11;11.40;1.00
2623;DHT22;1321;48.690;9.022;2023-03-14T01:13:40;11.30;1.00
2623;DHT22;1321;48.690;9.022;2023-03-14T01:16:10;11.20;1.00
2623;DHT22;1321;48.690;9.022;2023-03-14T01:18:39;11.30;1.00
2623;DHT22;1321;48.690;9.022;2023-03-14T01:21:11;11.30;99.90
2623;DHT22;1321;48.690;9.022;2023-03-14T01:23:42;11.30;99.90
2623;DHT22;1321;48.690;9.022;2023-03-14T01:26:11;11.30;99.90
2623;DHT22;1321;48.690;9.022;2023-03-14T01:28:39;11.30;99.90
2623;DHT22;1321;48.690;9.022;2023-03-14T01:31:10;11.30;99.90
2623;DHT22;1321;48.690;9.022;2023-03-14T01:33:38;11.20;99.90
2623;DHT22;1321;48.690;9.022;2023-03-14T01:36:08;11.30;99.90
2623;DHT22;1321;48.690;9.022;2023-03-14T01:38:37;11.30;99.90
2623;DHT22;1321;48.690;9.022;2023-03-14T01:41:12;11.30;99.90
2623;DHT22;1321;48.690;9.022;2023-03-14T01:43:40;11.20;99.90
2623;DHT22;1321;48.690;9.022;2023-03-14T01:49:16;11.10;99.90
2623;DHT22;1321;48.690;9.022;2023-03-14T01:51:50;11.00;99.90
2623;DHT22;1321;48.690;9.022;2023-03-14T01:54:23;11.10;99.90
2623;DHT22;1321;48.690;9.022;2023-03-14T01:56:56;11.00;99.90
2623;DHT22;1321;48.690;9.022;2023-03-14T01:59:26;11.00;99.90
2623;DHT22;1321;48.690;9.022;2023-03-14T02:01:55;11.00;1.00
2623;DHT22;1321;48.690;9.022;2023-03-14T02:04:28;11.00;1.00
2623;DHT22;1321;48.690;9.022;2023-03-14T02:07:01;11.00;1.00
2623;DHT22;1321;48.690;9.022;2023-03-14T02:09:31;11.10;1.00
2623;DHT22;1321;48.690;9.022;2023-03-14T02:12:00;11.10;1.00
2623;DHT22;1321;48.690;9.022;2023-03-14T02:14:32;11.10;99.90
2623;DHT22;1321;48.690;9.022;2023-03-14T02:17:01;11.20;99.90
2623;DHT22;1321;48.690;9.022;2023-03-14T02:19:44;11.10;1.00
2623;DHT22;1321;48.690;9.022;2023-03-14T02:22:16;11.10;1.00
2623;DHT22;1321;48.690;9.022;2023-03-14T02:24:49;11.00;1.00
2623;DHT22;1321;48.690;9.022;2023-03-14T02:27:23;11.00;1.00
2623;DHT22;1321;48.690;9.022;2023-03-14T02:29:53;11.00;1.00
2623;DHT22;1321;48.690;9.022;2023-03-14T02:32:22;11.00;1.00
2623;DHT22;1321;48.690;9.022;2023-03-14T02:34:55;10.90;1.00
2623;DHT22;1321;48.690;9.022;2023-03-14T02:37:28;11.00;99.90
2623;DHT22;1321;48.690;9.022;2023-03-14T02:39:59;11.00;99.90
2623;DHT22;1321;48.690;9.022;2023-03-14T02:42:29;11.10;99.90
2623;DHT22;1321;48.690;9.022;2023-03-14T02:45:23;11.00;99.90
2623;DHT22;1321;48.690;9.022;2023-03-14T02:47:53;11.00;99.90
2623;DHT22;1321;48.690;9.022;2023-03-14T02:50:25;10.90;99.90
2623;DHT22;1321;48.690;9.022;2023-03-14T02:52:54;11.00;99.90
2623;DHT22;1321;48.690;9.022;2023-03-14T02:55:23;11.10;99.90
2623;DHT22;1321;48.690;9.022;2023-03-14T02:57:53;11.10;1.00
2623;DHT22;1321;48.690;9.022;2023-03-14T03:00:21;10.90;1.00
2623;DHT22;1321;48.690;9.022;2023-03-14T03:02:50;10.90;1.00
2623;DHT22;1321;48.690;9.022;2023-03-14T03:05:18;10.90;99.90
2623;DHT22;1321;48.690;9.022;2023-03-14T03:07:46;11.00;99.90
2623;DHT22;1321;48.690;9.022;2023-03-14T03:10:15;10.90;99.90
2623;DHT22;1321;48.690;9.022;2023-03-14T03:12:43;10.90;1.00
2623;DHT22;1321;48.690;9.022;2023-03-14T03:15:13;10.80;99.90
2623;DHT22;1321;48.690;9.022;2023-03-14T03:17:41;10.90;99.90
2623;DHT22;1321;48.690;9.022;2023-03-14T03:20:10;10.80;99.90
2623;DHT22;1321;48.690;9.022;2023-03-14T03:22:39;10.80;94.40
2623;DHT22;1321;48.690;9.022;2023-03-14T03:25:08;10.80;99.90
2623;DHT22;1321;48.690;9.022;2023-03-14T03:27:37;10.80;99.90
2623;DHT22;1321;48.690;9.022;2023-03-14T03:30:07;10.90;99.90
2623;DHT22;1321;48.690;9.022;2023-03-14T03:32:37;10.80;99.90
2623;DHT22;1321;48.690;9.022;2023-03-14T03:35:06;10.80;99.90
2623;DHT22;1321;48.690;9.022;2023-03-14T03:37:34;10.90;99.90
2623;DHT22;1321;48.690;9.022;2023-03-14T03:40:03;10.90;1.00
2623;DHT22;1321;48.690;9.022;2023-03-14T03:42:33;10.80;1.00
2623;DHT22;1321;48.690;9.022;2023-03-14T03:45:02;10.90;99.90
2623;DHT22;1321;48.690;9.022;2023-03-14T03:47:31;10.80;1.00
2623;DHT22;1321;48.690;9.022;2023-03-14T03:50:00;10.90;1.00
2623;DHT22;1321;48.690;9.022;2023-03-14T03:52:29;10.90;1.00
2623;DHT22;1321;48.690;9.022;2023-03-14T03:54:57;10.90;1.00
2623;DHT22;1321;48.690;9.022;2023-03-14T03:57:25;10.90;1.00
2623;DHT22;1321;48.690;9.022;2023-03-14T03:59:53;10.90;99.90
2623;DHT22;1321;48.690;9.022;2023-03-14T04:02:21;10.80;99.90
2623;DHT22;1321;48.690;9.022;2023-03-14T04:04:50;10.80;99.90
2623;DHT22;1321;48.690;9.022;2023-03-14T04:07:19;10.70;99.90
2623;DHT22;1321;48.690;9.022;2023-03-14T04:09:47;10.70;99.90
2623;DHT22;1321;48.690;9.022;2023-03-14T04:12:15;10.70;99.90
2623;DHT22;1321;48.690;9.022;2023-03-14T04:14:44;10.70;99.90
2623;DHT22;1321;48.690;9.022;2023-03-14T04:17:12;10.60;99.90
2623;DHT22;1321;48.690;9.022;2023-03-14T04:19:41;10.70;99.90
2623;DHT22;1321;48.690;9.022;2023-03-14T04:22:09;10.70;99.90
2623;DHT22;1321;48.690;9.022;2023-03-14T04:24:38;10.70;99.90
2623;DHT22;1321;48.690;9.022;2023-03-14T04:27:07;10.60;99.90
2623;DHT22;1321;48.690;9.022;2023-03-14T04:29:35;10.60;99.90
2623;DHT22;1321;48.690;9.022;2023-03-14T04:32:03;10.70;80.20
2623;DHT22;1321;48.690;9.022;2023-03-14T04:34:31;10.60;99.90
2623;DHT22;1321;48.690;9.022;2023-03-14T04:36:59;10.60;65.40
2623;DHT22;1321;48.690;9.022;2023-03-14T04:39:27;10.60;89.30
2623;DHT22;1321;48.690;9.022;2023-03-14T04:41:57;10.60;1.00
2623;DHT22;1321;48.690;9.022;2023-03-14T04:44:25;10.60;13.60
2623;DHT22;1321;48.690;9.022;2023-03-14T04:46:53;10.60;1.00
2623;DHT22;1321;48.690;9.022;2023-03-14T04:49:21;10.60;39.50
2623;DHT22;1321;48.690;9.022;2023-03-14T04:51:50;10.60;36.30
2623;DHT22;1321;48.690;9.022;2023-03-14T04:54:18;10.50;99.90
2623;DHT22;1321;48.690;9.022;2023-03-14T04:56:46;10.50;99.90
2623;DHT22;1321;48.690;9.022;2023-03-14T04:59:16;10.50;99.90
2623;DHT22;1321;48.690;9.022;2023-03-14T05:01:44;10.30;99.90
2623;DHT22;1321;48.690;9.022;2023-03-14T05:04:12;10.40;99.90
2623;DHT22;1321;48.690;9.022;2023-03-14T05:06:40;10.40;99.90
2623;DHT22;1321;48.690;9.022;2023-03-14T05:09:09;10.50;99.90
2623;DHT22;1321;48.690;9.022;2023-03-14T05:11:37;10.40;99.90
2623;DHT22;1321;48.690;9.022;2023-03-14T05:14:05;10.40;99.90
2623;DHT22;1321;48.690;9.022;2023-03-14T05:16:34;10.40;99.90
2623;DHT22;1321;48.690;9.022;2023-03-14T05:19:02;10.40;1.00
2623;DHT22;1321;48.690;9.022;2023-03-14T05:21:30;10.40;58.30
2623;DHT22;1321;48.690;9.022;2023-03-14T05:23:59;10.50;38.10
2623;DHT22;1321;48.690;9.022;2023-03-14T05:26:27;10.50;1.00
2623;DHT22;1321;48.690;9.022;2023-03-14T05:28:55;10.50;1.00
2623;DHT22;1321;48.690;9.022;2023-03-14T05:31:23;10.40;1.00
2623;DHT22;1321;48.690;9.022;2023-03-14T05:33:52;10.40;61.70
2623;DHT22;1321;48.690;9.022;2023-03-14T05:36:21;10.40;31.20
2623;DHT22;1321;48.690;9.022;2023-03-14T05:38:49;10.40;19.90
2623;DHT22;1321;48.690;9.022;2023-03-14T05:41:17;10.40;1.00
2623;DHT22;1321;48.690;9.022;2023-03-14T05:43:45;10.50;1.00
2623;DHT22;1321;48.690;9.022;2023-03-14T05:46:13;10.50;1.00
2623;DHT22;1321;48.690;9.022;2023-03-14T05:48:41;10.50;1.00
2623;DHT22;1321;48.690;9.022;2023-03-14T05:51:11;10.50;1.00
2623;DHT22;1321;48.690;9.022;2023-03-14T05:53:39;10.50;1.00
2623;DHT22;1321;48.690;9.022;2023-03-14T05:56:08;10.60;1.00
2623;DHT22;1321;48.690;9.022;2023-03-14T05:58:36;10.50;1.00
2623;DHT22;1321;48.690;9.022;2023-03-14T06:01:06;10.60;1.00
2623;DHT22;1321;48.690;9.022;2023-03-14T06:03:34;10.70;99.90
2623;DHT22;1321;48.690;9.022;2023-03-14T06:06:03;10.60;99.90
2623;DHT22;1321;48.690;9.022;2023-03-14T06:08:32;10.60;99.90
2623;DHT22;1321;48.690;9.022;2023-03-14T06:11:03;10.60;99.90
2623;DHT22;1321;48.690;9.022;2023-03-14T06:13:31;10.60;99.90
2623;DHT22;1321;48.690;9.022;2023-03-14T06:15:59;10.70;99.90
2623;DHT22;1321;48.690;9.022;2023-03-14T06:18:27;10.70;99.90
2623;DHT22;1321;48.690;9.022;2023-03-14T06:20:56;10.70;99.90
2623;DHT22;1321;48.690;9.022;2023-03-14T06:23:24;10.70;99.90
2623;DHT22;1321;48.690;9.022;2023-03-14T06:25:54;10.80;99.90
2623;DHT22;1321;48.690;9.022;2023-03-14T06:28:22;10.80;99.90
2623;DHT22;1321;48.690;9.022;2023-03-14T06:30:52;10.80;99.90
2623;DHT22;1321;48.690;9.022;2023-03-14T06:33:20;10.70;99.90
2623;DHT22;1321;48.690;9.022;2023-03-14T06:35:48;10.70;99.90
2623;DHT22;1321;48.690;9.022;2023-03-14T06:38:16;10.70;99.90
2623;DHT22;1321;48.690;9.022;2023-03-14T06:40:44;10.70;99.90
2623;DHT22;1321;48.690;9.022;2023-03-14T06:43:14;10.70;99.90
2623;DHT22;1321;48.690;9.022;2023-03-14T06:45:42;10.70;99.90
2623;DHT22;1321;48.690;9.022;2023-03-14T06:48:10;10.70;99.90
2623;DHT22;1321;48.690;9.022;2023-03-14T06:50:38;10.60;99.90
2623;DHT22;1321;48.690;9.022;2023-03-14T06:53:06;10.80;99.90
2623;DHT22;1321;48.690;9.022;2023-03-14T06:55:35;10.90;99.90
2623;DHT22;1321;48.690;9.022;2023-03-14T06:58:03;10.90;86.50
2623;DHT22;1321;48.690;9.022;2023-03-14T07:00:33;10.80;99.90
2623;DHT22;1321;48.690;9.022;2023-03-14T07:03:01;10.90;99.90
2623;DHT22;1321;48.690;9.022;2023-03-14T07:05:29;10.90;99.90
2623;DHT22;1321;48.690;9.022;2023-03-14T07:07:57;10.90;99.90
2623;DHT22;1321;48.690;9.022;2023-03-14T07:10:25;11.00;99.90
2623;DHT22;1321;48.690;9.022;2023-03-14T07:12:54;11.10;35.60
2623;DHT22;1321;48.690;9.022;2023-03-14T07:15:22;11.10;93.80
2623;DHT22;1321;48.690;9.022;2023-03-14T07:17:51;11.10;99.90
2623;DHT22;1321;48.690;9.022;2023-03-14T07:20:19;11.00;99.90
2623;DHT22;1321;48.690;9.022;2023-03-14T07:22:47;11.10;99.90
2623;DHT22;1321;48.690;9.022;2023-03-14T07:25:16;11.10;82.40
2623;DHT22;1321;48.690;9.022;2023-03-14T07:27:45;11.10;27.80
2623;DHT22;1321;48.690;9.022;2023-03-14T07:30:14;11.20;15.50
2623;DHT22;1321;48.690;9.022;2023-03-14T07:32:42;11.40;1.00
2623;DHT22;1321;48.690;9.022;2023-03-14T07:35:12;11.50;1.00
2623;DHT22;1321;48.690;9.022;2023-03-14T07:37:40;11.70;1.00
2623;DHT22;1321;48.690;9.022;2023-03-14T07:40:09;11.80;1.00
2623;DHT22;1321;48.690;9.022;2023-03-14T07:42:41;11.90;1.00
2623;DHT22;1321;48.690;9.022;2023-03-14T07:45:10;12.00;1.00
2623;DHT22;1321;48.690;9.022;2023-03-14T07:47:39;12.10;1.00
2623;DHT22;1321;48.690;9.022;2023-03-14T07:50:08;12.10;1.00
2623;DHT22;1321;48.690;9.022;2023-03-14T07:52:38;12.20;1.00
2623;DHT22;1321;48.690;9.022;2023-03-14T07:55:07;12.40;1.00
2623;DHT22;1321;48.690;9.022;2023-03-14T07:57:35;12.60;1.00
2623;DHT22;1321;48.690;9.022;2023-03-14T08:00:04;12.80;1.00
2623;DHT22;1321;48.690;9.022;2023-03-14T08:02:33;13.20;1.00
2623;DHT22;1321;48.690;9.022;2023-03-14T08:05:03;13.50;99.90
2623;DHT22;1321;48.690;9.022;2023-03-14T08:07:31;13.60;99.90
2623;DHT22;1321;48.690;9.022;2023-03-14T08:10:01;13.70;99.90
2623;DHT22;1321;48.690;9.022;2023-03-14T08:12:29;13.80;99.90
2623;DHT22;1321;48.690;9.022;2023-03-14T08:14:57;13.60;99.90
2623;DHT22;1321;48.690;9.022;2023-03-14T08:17:26;13.40;99.90
2623;DHT22;1321;48.690;9.022;2023-03-14T08:19:54;13.30;99.90
2623;DHT22;1321;48.690;9.022;2023-03-14T08:22:22;13.30;99.90
2623;DHT22;1321;48.690;9.022;2023-03-14T08:24:51;13.50;99.90
2623;DHT22;1321;48.690;9.022;2023-03-14T08:27:20;13.80;99.90
2623;DHT22;1321;48.690;9.022;2023-03-14T08:29:48;14.10;99.90
2623;DHT22;1321;48.690;9.022;2023-03-14T08:32:16;14.10;99.90
2623;DHT22;1321;48.690;9.022;2023-03-14T08:34:47;14.00;99.90
2623;DHT22;1321;48.690;9.022;2023-03-14T08:37:15;13.60;99.90
2623;DHT22;1321;48.690;9.022;2023-03-14T08:39:53;13.50;99.90
2623;DHT22;1321;48.690;9.022;2023-03-14T08:42:22;13.30;99.90
2623;DHT22;1321;48.690;9.022;2023-03-14T08:44:51;13.00;99.90
2623;DHT22;1321;48.690;9.022;2023-03-14T08:47:19;12.90;99.90
2623;DHT22;1321;48.690;9.022;2023-03-14T08:49:47;12.90;99.90
2623;DHT22;1321;48.690;9.022;2023-03-14T08:52:16;12.90;99.90
2623;DHT22;1321;48.690;9.022;2023-03-14T08:54:44;13.00;99.90
2623;DHT22;1321;48.690;9.022;2023-03-14T08:57:12;12.80;99.90
2623;DHT22;1321;48.690;9.022;2023-03-14T08:59:42;12.80;99.90
2623;DHT22;1321;48.690;9.022;2023-03-14T09:02:11;12.70;99.90
2623;DHT22;1321;48.690;9.022;2023-03-14T09:04:39;12.70;99.90
2623;DHT22;1321;48.690;9.022;2023-03-14T09:07:07;12.60;99.90
2623;DHT22;1321;48.690;9.022;2023-03-14T09:09:36;12.40;1.00
2623;DHT22;1321;48.690;9.022;2023-03-14T09:12:05;12.50;1.00
2623;DHT22;1321;48.690;9.022;2023-03-14T09:14:33;12.40;1.00
2623;DHT22;1321;48.690;9.022;2023-03-14T09:17:03;12.20;1.00
2623;DHT22;1321;48.690;9.022;2023-03-14T09:19:31;12.20;1.00
2623;DHT22;1321;48.690;9.022;2023-03-14T09:22:00;12.20;1.00
2623;DHT22;1321;48.690;9.022;2023-03-14T09:24:28;12.20;1.00
2623;DHT22;1321;48.690;9.022;2023-03-14T09:26:56;12.30;99.90
2623;DHT22;1321;48.690;9.022;2023-03-14T09:29:24;12.20;99.90
2623;DHT22;1321;48.690;9.022;2023-03-14T09:31:53;12.30;99.90
2623;DHT22;1321;48.690;9.022;2023-03-14T09:34:22;12.40;99.90
2623;DHT22;1321;48.690;9.022;2023-03-14T09:36:50;12.40;99.90
2623;DHT22;1321;48.690;9.022;2023-03-14T09:39:18;12.30;99.90
2623;DHT22;1321;48.690;9.022;2023-03-14T09:41:48;12.40;99.90
2623;DHT22;1321;48.690;9.022;2023-03-14T09:44:22;12.20;99.90
2623;DHT22;1321;48.690;9.022;2023-03-14T09:46:54;12.30;99.90
2623;DHT22;1321;48.690;9.022;2023-03-14T09:49:28;12.20;99.90
2623;DHT22;1321;48.690;9.022;2023-03-14T09:51:58;12.20;99.90
2623;DHT22;1321;48.690;9.022;2023-03-14T09:54:36;12.30;99.90
2623;DHT22;1321;48.690;9.022;2023-03-14T09:57:08;12.30;99.90
2623;DHT22;1321;48.690;9.022;2023-03-14T09:59:39;12.40;99.90
2623;DHT22;1321;48.690;9.022;2023-03-14T10:02:15;12.80;99.90
2623;DHT22;1321;48.690;9.022;2023-03-14T10:04:45;13.50;99.90
2623;DHT22;1321;48.690;9.022;2023-03-14T10:07:16;14.20;99.90
2623;DHT22;1321;48.690;9.022;2023-03-14T10:09:48;15.80;99.90
2623;DHT22;1321;48.690;9.022;2023-03-14T10:12:17;16.10;99.90
2623;DHT22;1321;48.690;9.022;2023-03-14T10:14:48;16.40;99.90
2623;DHT22;1321;48.690;9.022;2023-03-14T10:17:17;16.30;99.90
2623;DHT22;1321;48.690;9.022;2023-03-14T10:19:55;16.00;99.90
2623;DHT22;1321;48.690;9.022;2023-03-14T10:22:26;15.20;99.90
2623;DHT22;1321;48.690;9.022;2023-03-14T10:24:57;14.50;99.90
2623;DHT22;1321;48.690;9.022;2023-03-14T10:27:29;14.20;99.90
2623;DHT22;1321;48.690;9.022;2023-03-14T10:29:59;14.00;99.90
2623;DHT22;1321;48.690;9.022;2023-03-14T10:32:32;13.80;99.90
2623;DHT22;1321;48.690;9.022;2023-03-14T10:35:08;13.90;99.90
2623;DHT22;1321;48.690;9.022;2023-03-14T10:37:48;13.50;99.90
2623;DHT22;1321;48.690;9.022;2023-03-14T10:40:19;13.30;99.90
2623;DHT22;1321;48.690;9.022;2023-03-14T10:42:48;13.20;99.90
2623;DHT22;1321;48.690;9.022;2023-03-14T10:45:31;13.20;99.90
2623;DHT22;1321;48.690;9.022;2023-03-14T10:48:05;13.10;99.90
2623;DHT22;1321;48.690;9.022;2023-03-14T10:50:37;13.00;99.90
2623;DHT22;1321;48.690;9.022;2023-03-14T10:53:07;13.10;99.90
2623;DHT22;1321;48.690;9.022;2023-03-14T10:55:43;13.10;99.90
2623;DHT22;1321;48.690;9.022;2023-03-14T10:58:23;13.10;99.90
2623;DHT22;1321;48.690;9.022;2023-03-14T11:01:00;13.00;99.90
2623;DHT22;1321;48.690;9.022;2023-03-14T11:03:31;12.90;99.90
2623;DHT22;1321;48.690;9.022;2023-03-14T11:06:07;12.80;99.90
2623;DHT22;1321;48.690;9.022;2023-03-14T11:08:44;12.80;99.90
2623;DHT22;1321;48.690;9.022;2023-03-14T11:11:19;12.80;99.90
2623;DHT22;1321;48.690;9.022;2023-03-14T11:13:57;12.80;99.90
2623;DHT22;1321;48.690;9.022;2023-03-14T11:16:34;12.70;99.90
2623;DHT22;1321;48.690;9.022;2023-03-14T11:19:23;12.80;99.90
2623;DHT22;1321;48.690;9.022;2023-03-14T11:22:01;12.80;99.90
2623;DHT22;1321;48.690;9.022;2023-03-14T11:24:42;12.80;99.90
2623;DHT22;1321;48.690;9.022;2023-03-14T11:27:17;12.60;99.90
2623;DHT22;1321;48.690;9.022;2023-03-14T11:29:54;12.60;1.00
2623;DHT22;1321;48.690;9.022;2023-03-14T11:32:36;12.70;1.00
2623;DHT22;1321;48.690;9.022;2023-03-14T11:35:19;12.60;1.00
2623;DHT22;1321;48.690;9.022;2023-03-14T11:37:52;12.60;1.00
2623;DHT22;1321;48.690;9.022;2023-03-14T11:40:23;12.50;99.90
2623;DHT22;1321;48.690;9.022;2023-03-14T11:42:59;12.50;99.90
2623;DHT22;1321;48.690;9.022;2023-03-14T11:45:34;12.60;99.90
2623;DHT22;1321;48.690;9.022;2023-03-14T11:48:15;12.60;94.40
2623;DHT22;1321;48.690;9.022;2023-03-14T11:50:47;12.70;99.90
2623;DHT22;1321;48.690;9.022;2023-03-14T11:53:22;12.70;99.90
2623;DHT22;1321;48.690;9.022;2023-03-14T11:55:53;12.80;99.90
2623;DHT22;1321;48.690;9.022;2023-03-14T11:58:25;12.80;99.90
2623;DHT22;1321;48.690;9.022;2023-03-14T12:00:56;12.70;99.90
2623;DHT22;1321;48.690;9.022;2023-03-14T12:03:32;12.70;99.90
2623;DHT22;1321;48.690;9.022;2023-03-14T12:06:06;12.60;99.90
2623;DHT22;1321;48.690;9.022;2023-03-14T12:08:47;12.60;99.90
2623;DHT22;1321;48.690;9.022;2023-03-14T12:11:21;12.60;99.90
2623;DHT22;1321;48.690;9.022;2023-03-14T12:13:51;12.50;99.90
2623;DHT22;1321;48.690;9.022;2023-03-14T12:16:33;12.40;51.60
2623;DHT22;1321;48.690;9.022;2023-03-14T12:19:30;12.60;99.90
2623;DHT22;1321;48.690;9.022;2023-03-14T12:22:23;13.00;99.90
2623;DHT22;1321;48.690;9.022;2023-03-14T12:24:59;13.20;1.00
2623;DHT22;1321;48.690;9.022;2023-03-14T12:30:29;13.30;99.90
2623;DHT22;1321;48.690;9.022;2023-03-14T12:33:31;13.30;99.90
2623;DHT22;1321;48.690;9.022;2023-03-14T12:36:04;13.10;99.90
2623;DHT22;1321;48.690;9.022;2023-03-14T12:38:56;13.10;99.90
2623;DHT22;1321;48.690;9.022;2023-03-14T12:41:34;13.10;99.90
2623;DHT22;1321;48.690;9.022;2023-03-14T12:44:45;13.20;99.90
2623;DHT22;1321;48.690;9.022;2023-03-14T12:47:41;13.20;99.90
2623;DHT22;1321;48.690;9.022;2023-03-14T12:50:16;13.20;99.90
2623;DHT22;1321;48.690;9.022;2023-03-14T12:53:02;13.40;99.90
2623;DHT22;1321;48.690;9.022;2023-03-14T12:55:36;13.40;99.90
2623;DHT22;1321;48.690;9.022;2023-03-14T12:58:14;13.30;99.90
2623;DHT22;1321;48.690;9.022;2023-03-14T13:00:44;13.20;99.90
2623;DHT22;1321;48.690;9.022;2023-03-14T13:03:18;12.80;99.90
2623;DHT22;1321;48.690;9.022;2023-03-14T13:05:53;12.90;99.90
2623;DHT22;1321;48.690;9.022;2023-03-14T13:08:40;12.80;99.90
2623;DHT22;1321;48.690;9.022;2023-03-14T13:11:10;12.80;99.90
2623;DHT22;1321;48.690;9.022;2023-03-14T13:13:48;12.70;99.90
2623;DHT22;1321;48.690;9.022;2023-03-14T13:16:19;12.90;99.90
2623;DHT22;1321;48.690;9.022;2023-03-14T13:18:49;12.90;99.90
2623;DHT22;1321;48.690;9.022;2023-03-14T13:21:20;12.70;99.90
2623;DHT22;1321;48.690;9.022;2023-03-14T13:23:57;12.60;99.90
2623;DHT22;1321;48.690;9.022;2023-03-14T13:26:32;12.60;99.90
2623;DHT22;1321;48.690;9.022;2023-03-14T13:29:14;12.50;99.90
2623;DHT22;1321;48.690;9.022;2023-03-14T13:31:44;12.40;99.90
2623;DHT22;1321;48.690;9.022;2023-03-14T13:34:13;12.30;99.90
2623;DHT22;1321;48.690;9.022;2023-03-14T13:36:41;12.30;99.90
2623;DHT22;1321;48.690;9.022;2023-03-14T13:39:13;12.30;99.90
2623;DHT22;1321;48.690;9.022;2023-03-14T13:41:42;12.10;99.90
2623;DHT22;1321;48.690;9.022;2023-03-14T13:44:17;11.90;99.90
2623;DHT22;1321;48.690;9.022;2023-03-14T13:46:46;11.70;99.90
2623;DHT22;1321;48.690;9.022;2023-03-14T13:49:21;11.60;99.90
2623;DHT22;1321;48.690;9.022;2023-03-14T13:51:50;11.70;99.90
2623;DHT22;1321;48.690;9.022;2023-03-14T13:54:19;11.60;99.90
2623;DHT22;1321;48.690;9.022;2023-03-14T13:56:48;11.70;99.90
2623;DHT22;1321;48.690;9.022;2023-03-14T13:59:29;11.70;99.90
2623;DHT22;1321;48.690;9.022;2023-03-14T14:01:59;11.60;99.20
2623;DHT22;1321;48.690;9.022;2023-03-14T14:04:29;11.70;99.40
2623;DHT22;1321;48.690;9.022;2023-03-14T14:07:00;11.60;96.70
2623;DHT22;1321;48.690;9.022;2023-03-14T14:09:38;11.50;97.10
2623;DHT22;1321;48.690;9.022;2023-03-14T14:12:10;11.50;97.20
2623;DHT22;1321;48.690;9.022;2023-03-14T14:14:46;11.50;95.90
2623;DHT22;1321;48.690;9.022;2023-03-14T14:17:18;11.50;94.30
2623;DHT22;1321;48.690;9.022;2023-03-14T14:19:47;11.50;91.90
2623;DHT22;1321;48.690;9.022;2023-03-14T14:22:17;11.40;90.90
2623;DHT22;1321;48.690;9.022;2023-03-14T14:24:45;11.30;86.40
2623;DHT22;1321;48.690;9.022;2023-03-14T14:27:16;11.30;88.10
2623;DHT22;1321;48.690;9.022;2023-03-14T14:29:57;11.40;89.80
2623;DHT22;1321;48.690;9.022;2023-03-14T14:32:26;11.40;90.80
2623;DHT22;1321;48.690;9.022;2023-03-14T14:35:02;11.30;88.90
2623;DHT22;1321;48.690;9.022;2023-03-14T14:37:33;11.20;87.20
2623;DHT22;1321;48.690;9.022;2023-03-14T14:40:09;11.20;88.00
2623;DHT22;1321;48.690;9.022;2023-03-14T14:42:40;11.30;88.70
2623;DHT22;1321;48.690;9.022;2023-03-14T14:45:14;11.20;84.80
2623;DHT22;1321;48.690;9.022;2023-03-14T14:47:50;11.10;80.80
2623;DHT22;1321;48.690;9.022;2023-03-14T14:50:29;11.20;80.30
2623;DHT22;1321;48.690;9.022;2023-03-14T14:52:58;11.20;82.80
2623;DHT22;1321;48.690;9.022;2023-03-14T14:55:31;11.10;82.20
2623;DHT22;1321;48.690;9.022;2023-03-14T14:58:11;11.10;80.90
2623;DHT22;1321;48.690;9.022;2023-03-14T15:00:51;11.10;82.40
2623;DHT22;1321;48.690;9.022;2023-03-14T15:03:20;11.20;85.30
2623;DHT22;1321;48.690;9.022;2023-03-14T15:05:48;11.20;81.30
2623;DHT22;1321;48.690;9.022;2023-03-14T15:08:16;11.20;84.40
2623;DHT22;1321;48.690;9.022;2023-03-14T15:10:44;11.40;86.70
2623;DHT22;1321;48.690;9.022;2023-03-14T15:13:12;11.50;89.70
2623;DHT22;1321;48.690;9.022;2023-03-14T15:15:42;11.50;88.80
2623;DHT22;1321;48.690;9.022;2023-03-14T15:18:13;11.60;90.40
2623;DHT22;1321;48.690;9.022;2023-03-14T15:20:42;11.60;89.40
2623;DHT22;1321;48.690;9.022;2023-03-14T15:23:11;11.60;87.40
2623;DHT22;1321;48.690;9.022;2023-03-14T15:25:39;11.60;86.00
2623;DHT22;1321;48.690;9.022;2023-03-14T15:28:23;11.50;83.70
2623;DHT22;1321;48.690;9.022;2023-03-14T15:30:54;11.50;83.30
2623;DHT22;1321;48.690;9.022;2023-03-14T15:33:23;11.40;79.50
2623;DHT22;1321;48.690;9.022;2023-03-14T15:35:52;11.30;81.10
2623;DHT22;1321;48.690;9.022;2023-03-14T15:38:22;11.40;81.90
2623;DHT22;1321;48.690;9.022;2023-03-14T15:40:50;11.30;81.50
2623;DHT22;1321;48.690;9.022;2023-03-14T15:43:19;11.30;82.10
2623;DHT22;1321;48.690;9.022;2023-03-14T15:45:47;11.20;82.30
2623;DHT22;1321;48.690;9.022;2023-03-14T15:48:19;11.20;81.00
2623;DHT22;1321;48.690;9.022;2023-03-14T15:50:48;11.20;80.80
2623;DHT22;1321;48.690;9.022;2023-03-14T15:53:16;11.20;79.70
2623;DHT22;1321;48.690;9.022;2023-03-14T15:55:44;11.10;80.20
2623;DHT22;1321;48.690;9.022;2023-03-14T15:58:17;11.00;79.30
2623;DHT22;1321;48.690;9.022;2023-03-14T16:00:48;11.00;80.60
2623;DHT22;1321;48.690;9.022;2023-03-14T16:03:18;11.10;81.30
2623;DHT22;1321;48.690;9.022;2023-03-14T16:05:46;11.20;83.60
2623;DHT22;1321;48.690;9.022;2023-03-14T16:08:14;11.10;82.70
2623;DHT22;1321;48.690;9.022;2023-03-14T16:10:43;11.20;84.70
2623;DHT22;1321;48.690;9.022;2023-03-14T16:13:12;11.20;85.50
2623;DHT22;1321;48.690;9.022;2023-03-14T16:15:40;11.20;86.30
2623;DHT22;1321;48.690;9.022;2023-03-14T16:18:08;11.30;84.60
2623;DHT22;1321;48.690;9.022;2023-03-14T16:20:53;11.20;84.00
2623;DHT22;1321;48.690;9.022;2023-03-14T16:23:21;11.20;84.00
2623;DHT22;1321;48.690;9.022;2023-03-14T16:25:50;11.10;81.00
2623;DHT22;1321;48.690;9.022;2023-03-14T16:28:18;11.10;83.00
2623;DHT22;1321;48.690;9.022;2023-03-14T16:30:46;11.10;82.90
2623;DHT22;1321;48.690;9.022;2023-03-14T16:33:15;11.00;82.50
2623;DHT22;1321;48.690;9.022;2023-03-14T16:35:54;11.00;83.20